createdAt,value
2017-05-20T00:00:55.133Z,77.99
2017-05-20T00:03:18.523Z,78.56
2017-05-20T00:05:41.910Z,78.94
2017-05-20T00:08:05.299Z,78.47
2017-05-20T00:10:28.632Z,78.99
2017-05-20T00:12:29.784Z,78.47
2017-05-20T00:14:53.199Z,79.33
2017-05-20T00:17:16.602Z,77.84
2017-05-20T00:19:39.970Z,78.18
2017-05-20T00:21:41.652Z,77.89
2017-05-20T00:24:05.074Z,77.32
2017-05-20T00:26:20.056Z,78.18
2017-05-20T00:28:43.431Z,78.94
2017-05-20T00:30:44.610Z,79.57
2017-05-20T00:33:08.015Z,79.67
2017-05-20T00:35:31.408Z,79.33
2017-05-20T00:37:54.732Z,78.85
2017-05-20T00:40:18.097Z,78.75
2017-05-20T00:42:41.458Z,79.23
2017-05-20T00:45:04.835Z,79.57
2017-05-20T00:47:29.219Z,79.14
2017-05-20T00:49:52.603Z,78.94
2017-05-20T00:52:15.986Z,79.14
2017-05-20T00:54:39.379Z,79.28
2017-05-20T00:57:02.752Z,79.38
2017-05-20T00:59:12.936Z,79.14
2017-05-20T01:01:36.340Z,79.04
2017-05-20T01:03:51.323Z,78.37
2017-05-20T01:06:06.319Z,78.75
2017-05-20T01:08:29.700Z,79.43
2017-05-20T01:10:53.015Z,79.14
2017-05-20T01:13:16.410Z,79.04
2017-05-20T01:15:31.388Z,79.8
2017-05-20T01:17:54.772Z,79.38
2017-05-20T01:20:18.107Z,79.52
2017-05-20T01:22:16.269Z,79.61
2017-05-20T01:24:39.623Z,80.38
2017-05-20T01:26:54.595Z,79.23
2017-05-20T01:29:09.541Z,79.04
2017-05-20T01:31:32.886Z,79.71
2017-05-20T01:33:47.833Z,79.77
2017-05-20T01:36:11.171Z,80.33
2017-05-20T01:38:34.515Z,80.91
2017-05-20T01:40:44.170Z,80.72
2017-05-20T01:43:07.544Z,80.15
2017-05-20T01:45:30.869Z,80.43
2017-05-20T01:47:45.808Z,80.24
2017-05-20T01:50:09.149Z,80.62
2017-05-20T01:52:32.480Z,80.3
2017-05-20T01:54:55.773Z,80.62
2017-05-20T01:57:19.131Z,80.53
2017-05-20T01:59:42.496Z,80.53
2017-05-20T02:02:05.878Z,80.43
2017-05-20T02:04:29.239Z,80.72
2017-05-20T02:06:52.600Z,80.24
2017-05-20T02:09:15.963Z,80.24
2017-05-20T02:11:39.305Z,80.05
2017-05-20T02:14:02.636Z,79.77
2017-05-20T02:16:17.601Z,80.49
2017-05-20T02:18:24.145Z,80.3
2017-05-20T02:20:39.084Z,80.96
2017-05-20T02:22:45.601Z,80.49
2017-05-20T02:25:00.572Z,80.49
2017-05-20T02:27:23.942Z,80.43
2017-05-20T02:29:25.114Z,79.67
2017-05-20T02:31:48.457Z,80.3
2017-05-20T02:34:11.773Z,80.3
2017-05-20T02:36:21.909Z,80.2
2017-05-20T02:38:36.893Z,79.91
2017-05-20T02:41:00.220Z,79.63
2017-05-20T02:43:09.861Z,80.39
2017-05-20T02:45:24.811Z,80.96
2017-05-20T02:47:48.086Z,80.68
2017-05-20T02:50:02.996Z,80.77
2017-05-20T02:51:56.350Z,81.15
2017-05-20T02:54:11.283Z,80.58
2017-05-20T02:56:34.599Z,80.68
2017-05-20T02:58:57.919Z,79.91
2017-05-20T03:01:21.253Z,80.01
2017-05-20T03:03:44.613Z,80.2
2017-05-20T03:05:45.755Z,80.2
2017-05-20T03:08:09.092Z,80.68
2017-05-20T03:10:32.394Z,80.87
2017-05-20T03:12:55.710Z,80.3
2017-05-20T03:15:19.030Z,79.91
2017-05-20T03:17:42.357Z,80.3
2017-05-20T03:20:05.719Z,80.62
2017-05-20T03:21:58.445Z,79.67
2017-05-20T03:24:21.807Z,79.67
2017-05-20T03:26:45.134Z,79
2017-05-20T03:29:08.502Z,79.35
2017-05-20T03:31:23.454Z,79.63
2017-05-20T03:33:46.773Z,80.2
2017-05-20T03:36:10.112Z,79.91
2017-05-20T03:38:33.366Z,79.82
2017-05-20T03:40:56.697Z,79.38
2017-05-20T03:43:20.019Z,78.72
2017-05-20T03:45:43.698Z,79
2017-05-20T03:48:07.043Z,78.62
2017-05-20T03:50:21.966Z,78.33
2017-05-20T03:52:45.315Z,78.33
2017-05-20T03:55:00.243Z,77.61
2017-05-20T03:56:53.518Z,76.75
2017-05-20T03:59:08.492Z,75.95
2017-05-20T04:01:31.812Z,76.46
2017-05-20T04:03:55.155Z,76.18
2017-05-20T04:06:18.476Z,76.65
2017-05-20T04:08:41.825Z,75.98
2017-05-20T04:11:05.165Z,76.46
2017-05-20T04:13:28.493Z,77.23
2017-05-20T04:15:51.753Z,76.46
2017-05-20T04:18:15.139Z,75.51
2017-05-20T04:20:38.466Z,74.88
2017-05-20T04:23:01.848Z,74.21
2017-05-20T04:25:25.235Z,72.53
2017-05-20T04:27:48.632Z,72.53
2017-05-20T04:30:12.032Z,72.49
2017-05-20T04:32:35.484Z,66.29
2017-05-20T04:36:26.328Z,49.99
2017-05-20T04:38:50.125Z,44.78
2017-05-20T04:41:14.036Z,43.1
2017-05-20T04:43:38.025Z,49.41
2017-05-20T04:46:02.024Z,50.2
2017-05-20T04:48:17.639Z,41.46
2017-05-20T04:50:41.761Z,33.94
2017-05-20T04:53:06.058Z,30.33
2017-05-20T04:55:30.499Z,26.7
2017-05-20T04:57:32.017Z,25.45
2017-05-20T04:59:56.712Z,23.64
2017-05-20T05:02:21.530Z,21.24
2017-05-20T05:04:46.519Z,20.85
2017-05-20T05:07:11.634Z,19.23
2017-05-20T05:09:36.859Z,15.86
2017-05-20T05:12:02.173Z,14.98
2017-05-20T05:14:27.594Z,14.69
2017-05-20T05:16:44.545Z,12.37
2017-05-20T05:19:10.092Z,14.01
2017-05-20T05:21:35.762Z,11.98
2017-05-20T05:23:52.999Z,11.68
2017-05-20T05:26:18.823Z,12.37
2017-05-20T05:28:44.703Z,9.64
2017-05-20T05:31:02.087Z,9.63
2017-05-20T05:33:28.079Z,9.34
2017-05-20T05:35:54.139Z,10.42
2017-05-20T05:38:20.233Z,10.52
2017-05-20T05:40:46.332Z,11.29
2017-05-20T05:43:12.454Z,10.7
2017-05-20T05:45:38.665Z,9.74
2017-05-20T05:48:04.866Z,9.54
2017-05-20T05:50:22.513Z,10.22
2017-05-20T05:54:24.750Z,11.48
2017-05-20T05:56:51.111Z,9.83
2017-05-20T05:59:17.498Z,7.59
2017-05-20T06:01:43.945Z,6.81
2017-05-20T06:04:10.447Z,8.56
2017-05-20T06:06:28.415Z,7.29
2017-05-20T06:08:54.974Z,6.51
2017-05-20T06:11:21.570Z,6.2
2017-05-20T06:13:48.203Z,6.5
2017-05-20T06:16:14.896Z,7.77
2017-05-20T06:18:41.570Z,7.29
2017-05-20T06:21:08.269Z,8.75
2017-05-20T06:23:34.939Z,8.75
2017-05-20T06:26:01.674Z,6.99
2017-05-20T06:28:19.820Z,5.71
2017-05-20T06:30:31.106Z,6.12
2017-05-20T06:32:49.357Z,5.91
2017-05-20T06:35:00.601Z,6.11
2017-05-20T06:37:11.868Z,6.3
2017-05-20T06:39:30.163Z,7.68
2017-05-20T06:41:48.394Z,6.21
2017-05-20T06:44:15.220Z,11.27
2017-05-20T06:46:42.077Z,17.9
2017-05-20T06:49:08.960Z,21.66
2017-05-20T06:51:27.190Z,19.27
2017-05-20T06:53:53.983Z,20.8
2017-05-20T06:56:20.719Z,21.92
2017-05-20T06:58:38.690Z,21.2
2017-05-20T07:00:32.069Z,18.72
2017-05-20T07:02:58.337Z,18.99
2017-05-20T07:05:15.895Z,19.77
2017-05-20T07:07:41.848Z,21.3
2017-05-20T07:10:07.605Z,22.83
2017-05-20T07:12:33.225Z,22.83
2017-05-20T07:14:50.202Z,24.26
2017-05-20T07:17:15.613Z,23.97
2017-05-20T07:19:40.850Z,24.55
2017-05-20T07:21:57.549Z,24.66
2017-05-20T07:24:22.719Z,25.78
2017-05-20T07:26:47.778Z,26.73
2017-05-20T07:29:12.762Z,26.79
2017-05-20T07:31:29.241Z,28.7
2017-05-20T07:33:54.163Z,28.93
2017-05-20T07:36:02.109Z,27.31
2017-05-20T07:38:27.053Z,31.74
2017-05-20T07:40:51.957Z,30.92
2017-05-20T07:42:53.554Z,28.64
2017-05-20T07:45:18.449Z,28.45
2017-05-20T07:47:43.392Z,27.04
2017-05-20T07:50:08.304Z,27.12
2017-05-20T07:52:33.256Z,29.4
2017-05-20T07:54:58.208Z,31.78
2017-05-20T07:57:14.681Z,31.52
2017-05-20T07:59:39.645Z,27.59
2017-05-20T08:02:04.633Z,30.05
2017-05-20T08:04:29.593Z,31.6
2017-05-20T08:06:54.516Z,32.07
2017-05-20T08:09:19.401Z,31.68
2017-05-20T08:11:44.256Z,31.05
2017-05-20T08:13:52.220Z,28.44
2017-05-20T08:16:17.159Z,26.57
2017-05-20T08:18:42.130Z,26.54
2017-05-20T08:21:07.123Z,32.37
2017-05-20T08:23:32.059Z,29.41
2017-05-20T08:25:56.932Z,27.69
2017-05-20T08:28:13.351Z,25.51
2017-05-20T08:30:38.256Z,23.58
2017-05-20T08:33:03.205Z,22.63
2017-05-20T08:35:19.737Z,21.2
2017-05-20T08:37:44.795Z,24.16
2017-05-20T08:39:52.884Z,23.03
2017-05-20T08:42:09.463Z,23.17
2017-05-20T08:44:34.560Z,21.51
2017-05-20T08:46:59.669Z,20.81
2017-05-20T08:49:07.854Z,19.77
2017-05-20T08:51:33.029Z,17.39
2017-05-20T08:53:58.198Z,17.1
2017-05-20T08:56:14.950Z,15.66
2017-05-20T08:58:40.243Z,17
2017-05-20T09:01:05.526Z,18.63
2017-05-20T09:03:30.854Z,18.34
2017-05-20T09:05:56.152Z,22.33
2017-05-20T09:08:21.378Z,23.19
2017-05-20T09:10:46.529Z,21.59
2017-05-20T09:13:11.715Z,20.83
2017-05-20T09:15:36.914Z,17.85
2017-05-20T09:18:02.104Z,17.16
2017-05-20T09:20:27.318Z,18.71
2017-05-20T09:24:19.920Z,17.82
2017-05-20T09:26:28.203Z,17.54
2017-05-20T09:28:53.437Z,17.43
2017-05-20T09:31:18.686Z,19.27
2017-05-20T09:33:43.866Z,21.62
2017-05-20T09:36:09.004Z,20.98
2017-05-20T09:38:34.090Z,21
2017-05-20T09:40:59.177Z,19.92
2017-05-20T09:43:15.767Z,22
2017-05-20T09:45:17.390Z,21.17
2017-05-20T09:47:42.450Z,19.59
2017-05-20T09:50:07.569Z,16.97
2017-05-20T09:52:32.674Z,17.11
2017-05-20T09:54:34.307Z,20.3
2017-05-20T09:56:59.429Z,21.91
2017-05-20T09:59:24.429Z,23.45
2017-05-20T10:01:49.437Z,23.91
2017-05-20T10:04:14.427Z,26.01
2017-05-20T10:06:39.326Z,27.22
2017-05-20T10:09:04.227Z,27.03
2017-05-20T10:10:57.323Z,26.59
2017-05-20T10:12:59.637Z,26.76
2017-05-20T10:15:24.451Z,29.23
2017-05-20T10:17:49.238Z,31.15
2017-05-20T10:20:13.936Z,31.89
2017-05-20T10:22:38.627Z,35.42
2017-05-20T10:24:54.716Z,36.65
2017-05-20T10:27:19.184Z,37.23
2017-05-20T10:29:43.694Z,37.71
2017-05-20T10:32:08.181Z,37.25
2017-05-20T10:34:32.582Z,37.85
2017-05-20T10:36:56.961Z,37.08
2017-05-20T10:39:21.349Z,37.27
2017-05-20T10:41:45.751Z,37.27
2017-05-20T10:44:10.129Z,38.04
2017-05-20T10:46:34.525Z,36.46
2017-05-20T10:48:58.920Z,35.62
2017-05-20T10:51:23.278Z,35.08
2017-05-20T10:53:47.800Z,34.73
2017-05-20T10:56:12.299Z,33.23
2017-05-20T10:58:37.828Z,32.28
2017-05-20T11:01:02.395Z,30.44
2017-05-20T11:03:26.993Z,31.65
2017-05-20T11:05:51.588Z,32.79
2017-05-20T11:08:16.172Z,32.89
2017-05-20T11:10:32.268Z,33.45
2017-05-20T11:12:56.755Z,34.7
2017-05-20T11:15:21.367Z,35.36
2017-05-20T11:17:45.852Z,35.36
2017-05-20T11:20:10.339Z,35.45
2017-05-20T11:22:34.827Z,34.52
2017-05-20T11:24:59.327Z,35.18
2017-05-20T11:27:23.820Z,34.99
2017-05-20T11:29:39.853Z,35.37
2017-05-20T11:31:55.846Z,35.02
2017-05-20T11:34:11.786Z,34.54
2017-05-20T11:36:36.277Z,34.52
2017-05-20T11:39:00.774Z,35.08
2017-05-20T11:41:25.261Z,32.28
2017-05-20T11:43:49.655Z,31.62
2017-05-20T11:46:05.655Z,32.41
2017-05-20T11:48:30.141Z,32.01
2017-05-20T11:50:54.638Z,30.86
2017-05-20T11:53:19.126Z,30.88
2017-05-20T11:55:43.617Z,31.36
2017-05-20T11:58:08.112Z,32.2
2017-05-20T12:00:24.119Z,31.81
2017-05-20T12:02:48.592Z,32.29
2017-05-20T12:05:13.079Z,32.96
2017-05-20T12:07:37.572Z,33.33
2017-05-20T12:10:02.056Z,32.87
2017-05-20T12:12:26.556Z,32.79
2017-05-20T12:14:51.051Z,32.59
2017-05-20T12:17:15.537Z,33.17
2017-05-20T12:19:40.030Z,31.65
2017-05-20T12:21:41.527Z,31.46
2017-05-20T12:24:06.073Z,31.65
2017-05-20T12:26:30.568Z,33.18
2017-05-20T12:28:32.155Z,32.62
2017-05-20T12:30:56.628Z,31.76
2017-05-20T12:33:21.106Z,32.02
2017-05-20T12:35:28.697Z,31.34
2017-05-20T12:37:53.188Z,31.71
2017-05-20T12:40:17.671Z,31.62
2017-05-20T12:42:42.163Z,31.23
2017-05-20T12:45:06.655Z,30.85
2017-05-20T12:47:22.699Z,31.12
2017-05-20T12:49:47.131Z,32.84
2017-05-20T12:52:11.638Z,31.98
2017-05-20T12:54:36.120Z,33.14
2017-05-20T12:56:52.011Z,33.04
2017-05-20T12:58:53.477Z,32.67
2017-05-20T13:01:17.960Z,33.04
2017-05-20T13:03:42.338Z,33.54
2017-05-20T13:07:42.628Z,33.15
2017-05-20T13:10:07.072Z,35.78
2017-05-20T13:12:31.566Z,34.78
2017-05-20T13:14:55.950Z,33.84
2017-05-20T13:17:20.458Z,33.83
2017-05-20T13:19:44.837Z,33.44
2017-05-20T13:22:09.232Z,32.31
2017-05-20T13:24:33.610Z,31.73
2017-05-20T13:26:58.002Z,32.49
2017-05-20T13:29:22.534Z,31.23
2017-05-20T13:31:46.994Z,31.04
2017-05-20T13:34:11.479Z,31.73
2017-05-20T13:36:35.970Z,31.05
2017-05-20T13:39:00.463Z,30.94
2017-05-20T13:41:16.466Z,31.22
2017-05-20T13:43:40.874Z,31.7
2017-05-20T13:46:05.273Z,31.98
2017-05-20T13:48:29.740Z,31.78
2017-05-20T13:50:54.113Z,33.14
2017-05-20T13:53:18.499Z,32.46
2017-05-20T13:55:34.443Z,31.3
2017-05-20T13:57:58.773Z,31.6
2017-05-20T14:00:23.167Z,31.68
2017-05-20T14:02:47.556Z,31.6
2017-05-20T14:05:11.946Z,32.56
2017-05-20T14:07:27.892Z,32.56
2017-05-20T14:09:52.223Z,32.73
2017-05-20T14:12:16.628Z,33.63
2017-05-20T14:14:41.015Z,32.01
2017-05-20T14:17:05.397Z,32.76
2017-05-20T14:19:06.845Z,32.29
2017-05-20T14:21:31.335Z,31.05
2017-05-20T14:23:55.727Z,30.38
2017-05-20T14:26:20.119Z,30.94
2017-05-20T14:28:44.500Z,31.6
2017-05-20T14:30:51.993Z,30.55
2017-05-20T14:33:07.995Z,30.83
2017-05-20T14:35:23.996Z,31.62
2017-05-20T14:37:39.978Z,30.38
2017-05-20T14:40:04.471Z,29.59
2017-05-20T14:42:28.960Z,28.44
2017-05-20T14:44:53.453Z,28.83
2017-05-20T14:47:17.949Z,30.18
2017-05-20T14:49:42.433Z,31.04
2017-05-20T14:51:58.443Z,30.55
2017-05-20T14:54:22.920Z,30.65
2017-05-20T14:56:47.408Z,30.96
2017-05-20T14:59:03.341Z,31.34
2017-05-20T15:01:27.792Z,29.32
2017-05-20T15:03:52.280Z,28.92
2017-05-20T15:05:45.288Z,29.02
2017-05-20T15:08:09.835Z,29.78
2017-05-20T15:10:25.832Z,30.07
2017-05-20T15:12:41.743Z,29.78
2017-05-20T15:14:57.706Z,31.33
2017-05-20T15:17:22.085Z,31.51
2017-05-20T15:19:46.472Z,31.88
2017-05-20T15:22:10.867Z,31.68
2017-05-20T15:24:12.322Z,32.23
2017-05-20T15:26:13.812Z,32.52
2017-05-20T15:28:38.256Z,31.56
2017-05-20T15:31:02.639Z,30.62
2017-05-20T15:33:27.042Z,31.18
2017-05-20T15:35:51.324Z,32.15
2017-05-20T15:38:07.207Z,31.86
2017-05-20T15:40:31.606Z,30.91
2017-05-20T15:42:55.996Z,30.62
2017-05-20T15:45:20.381Z,30.41
2017-05-20T15:47:44.759Z,31.18
2017-05-20T15:50:09.159Z,31.28
2017-05-20T15:52:25.049Z,30.44
2017-05-20T15:54:49.442Z,29.53
2017-05-20T15:57:13.831Z,29.25
2017-05-20T15:59:38.215Z,29.36
2017-05-20T16:02:02.607Z,31.2
2017-05-20T16:04:26.996Z,30.7
2017-05-20T16:06:51.283Z,31.56
2017-05-20T16:09:07.172Z,31.48
2017-05-20T16:11:31.557Z,31.67
2017-05-20T16:13:47.413Z,32.14
2017-05-20T16:16:03.321Z,32.91
2017-05-20T16:18:27.610Z,32.15
2017-05-20T16:20:51.907Z,31.85
2017-05-20T16:23:01.939Z,32.89
2017-05-20T16:25:26.294Z,32.71
2017-05-20T16:27:42.135Z,32.89
2017-05-20T16:30:06.357Z,33.78
2017-05-20T16:32:07.777Z,33.29
2017-05-20T16:34:32.058Z,33.86
2017-05-20T16:36:47.850Z,33.74
2017-05-20T16:39:03.648Z,34.42
2017-05-20T16:41:05.069Z,34.7
2017-05-20T16:43:29.391Z,35.58
2017-05-20T16:45:53.659Z,35.75
2017-05-20T16:48:09.396Z,36.15
2017-05-20T16:50:33.629Z,35.96
2017-05-20T16:52:43.609Z,36.15
2017-05-20T16:55:07.863Z,37.01
2017-05-20T16:57:23.611Z,36.33
2017-05-20T16:59:47.829Z,37.19
2017-05-20T17:02:03.517Z,37.21
2017-05-20T17:04:27.702Z,37.29
2017-05-20T17:06:29.101Z,37.02
2017-05-20T17:08:53.338Z,38.26
2017-05-20T17:11:09.130Z,37.6
2017-05-20T17:13:33.319Z,37.21
2017-05-20T17:15:57.497Z,37.71
2017-05-20T17:17:59.490Z,37.52
2017-05-20T17:20:23.747Z,37.02
2017-05-20T17:22:47.936Z,37.13
2017-05-20T17:25:12.118Z,36.46
2017-05-20T17:27:36.403Z,37.21
2017-05-20T17:30:00.691Z,37.21
2017-05-20T17:32:24.874Z,37.12
2017-05-20T17:34:49.051Z,37.12
2017-05-20T17:36:58.995Z,38.2
2017-05-20T17:39:23.294Z,37.13
2017-05-20T17:41:39.015Z,37.23
2017-05-20T17:44:03.172Z,37.81
2017-05-20T17:46:27.340Z,37.98
2017-05-20T17:48:43.063Z,37.98
2017-05-20T17:51:07.165Z,38.37
2017-05-20T17:53:22.831Z,39.51
2017-05-20T17:55:46.923Z,40.28
2017-05-20T17:58:02.603Z,40.45
2017-05-20T18:00:26.733Z,40.47
2017-05-20T18:02:42.402Z,39.99
2017-05-20T18:05:06.439Z,41.22
2017-05-20T18:07:30.521Z,41.61
2017-05-20T18:09:37.736Z,39.97
2017-05-20T18:11:30.713Z,40.16
2017-05-20T18:13:54.828Z,40.45
2017-05-20T18:16:18.934Z,40.36
2017-05-20T18:18:43.015Z,40.55
2017-05-20T18:21:07.079Z,40.45
2017-05-20T18:23:22.740Z,41.13
2017-05-20T18:25:38.341Z,41.03
2017-05-20T18:28:02.369Z,41.99
2017-05-20T18:30:17.989Z,41.88
2017-05-20T18:32:42.001Z,41.56
2017-05-20T18:35:05.990Z,42.07
2017-05-20T18:37:07.872Z,41.76
2017-05-20T18:39:23.443Z,41.86
2017-05-20T18:41:39.027Z,41.08
2017-05-20T18:44:03.000Z,40.51
2017-05-20T18:46:26.991Z,40.12
2017-05-20T18:48:42.535Z,40.7
2017-05-20T18:51:06.511Z,40.78
2017-05-20T18:53:22.035Z,39.62
2017-05-20T18:55:46.022Z,40.3
2017-05-20T18:58:01.598Z,40.3
2017-05-20T18:59:54.580Z,40.58
2017-05-20T19:02:10.152Z,40.58
2017-05-20T19:04:34.079Z,40.88
2017-05-20T19:06:49.594Z,40.78
2017-05-20T19:09:13.522Z,40.68
2017-05-20T19:11:37.445Z,40.58
2017-05-20T19:14:01.403Z,40.97
2017-05-20T19:17:38.544Z,40.78
2017-05-20T19:20:02.517Z,41.83
2017-05-20T19:22:18.041Z,42.32
2017-05-20T19:24:41.979Z,42.22
2017-05-20T19:27:05.933Z,42.22
2017-05-20T19:29:29.866Z,42.1
2017-05-20T19:31:53.795Z,42.2
2017-05-20T19:34:17.730Z,42.03
2017-05-20T19:36:41.693Z,42.2
2017-05-20T19:39:05.597Z,42.68
2017-05-20T19:41:29.494Z,42.77
2017-05-20T19:43:53.406Z,43.07
2017-05-20T19:46:17.348Z,43.45
2017-05-20T19:48:32.858Z,44.22
2017-05-20T19:50:56.781Z,44.22
2017-05-20T19:53:12.272Z,44.31
2017-05-20T19:55:36.135Z,44.02
2017-05-20T19:58:00.050Z,44.22
2017-05-20T20:00:01.363Z,44.7
2017-05-20T20:02:25.294Z,45.15
2017-05-20T20:04:49.179Z,45.64
2017-05-20T20:07:13.059Z,46.79
2017-05-20T20:09:28.510Z,46.59
2017-05-20T20:11:52.390Z,46.59
2017-05-20T20:14:02.295Z,46.77
2017-05-20T20:16:26.191Z,46.86
2017-05-20T20:18:41.673Z,47.82
2017-05-20T20:21:05.537Z,47.63
2017-05-20T20:23:20.955Z,48.21
2017-05-20T20:25:44.810Z,48.79
2017-05-20T20:28:00.237Z,48.59
2017-05-20T20:30:24.071Z,48.79
2017-05-20T20:32:47.942Z,48.88
2017-05-20T20:35:03.365Z,49.46
2017-05-20T20:37:10.368Z,49.36
2017-05-20T20:39:25.749Z,49.55
2017-05-20T20:41:41.141Z,50.23
2017-05-20T20:43:50.983Z,50.51
2017-05-20T20:46:14.827Z,51.93
2017-05-20T20:48:38.610Z,51.93
2017-05-20T20:51:02.466Z,52.02
2017-05-20T20:53:26.309Z,51.47
2017-05-20T20:55:41.740Z,52.12
2017-05-20T20:58:05.565Z,52.31
2017-05-20T21:00:29.365Z,51.93
2017-05-20T21:02:53.186Z,52.5
2017-05-20T21:05:17.009Z,52.69
2017-05-20T21:07:40.843Z,53.27
2017-05-20T21:10:04.660Z,54.01
2017-05-20T21:12:20.045Z,54.97
2017-05-20T21:14:43.899Z,54.97
2017-05-20T21:17:07.698Z,55.07
2017-05-20T21:19:31.529Z,55.35
2017-05-20T21:21:55.316Z,56.51
2017-05-20T21:24:19.124Z,56.89
2017-05-20T21:26:42.924Z,57.82
2017-05-20T21:29:06.706Z,58.3
2017-05-20T21:31:30.501Z,58.49
2017-05-20T21:33:54.295Z,59.61
2017-05-20T21:36:18.050Z,59.04
2017-05-20T21:38:41.850Z,58.3
2017-05-20T21:41:05.646Z,58.87
2017-05-20T21:43:29.425Z,59.26
2017-05-20T21:45:22.327Z,58.78
2017-05-20T21:47:46.147Z,58.87
2017-05-20T21:49:47.428Z,59.16
2017-05-20T21:52:11.170Z,58.75
2017-05-20T21:54:34.929Z,59.42
2017-05-20T21:56:58.682Z,59.71
2017-05-20T21:59:00.002Z,59.33
2017-05-20T22:01:23.767Z,59.42
2017-05-20T22:03:47.512Z,60.09
2017-05-20T22:06:11.226Z,60.19
2017-05-20T22:08:34.936Z,59.61
2017-05-20T22:10:36.268Z,60.76
2017-05-20T22:12:59.992Z,60.47
2017-05-20T22:15:15.297Z,60.76
2017-05-20T22:17:30.609Z,61.05
2017-05-20T22:19:54.313Z,60.67
2017-05-20T22:22:18.008Z,61.05
2017-05-20T22:24:41.729Z,60.47
2017-05-20T22:27:05.416Z,61.21
2017-05-20T22:29:29.127Z,61.5
2017-05-20T22:31:52.841Z,61.4
2017-05-20T22:34:16.534Z,61.88
2017-05-20T22:36:40.231Z,61.88
2017-05-20T22:39:03.947Z,62.36
2017-05-20T22:41:27.668Z,62.36
2017-05-20T22:43:51.397Z,62.07
2017-05-20T22:46:15.058Z,61.69
2017-05-20T22:48:38.717Z,61.69
2017-05-20T22:51:02.381Z,61.88
2017-05-20T22:53:17.670Z,61.88
2017-05-20T22:55:32.927Z,62.26
2017-05-20T22:57:56.592Z,62.55
2017-05-20T23:00:20.246Z,62.93
2017-05-20T23:02:35.466Z,63.03
2017-05-20T23:04:59.125Z,62.74
2017-05-20T23:07:22.813Z,62.17
2017-05-20T23:09:46.513Z,62.07
2017-05-20T23:12:10.148Z,61.69
2017-05-20T23:14:33.847Z,61.6
2017-05-20T23:16:35.133Z,61.31
2017-05-20T23:18:58.840Z,61.6
2017-05-20T23:21:22.552Z,61.98
2017-05-20T23:23:23.835Z,61.4
2017-05-20T23:25:25.077Z,61.79
2017-05-20T23:27:48.773Z,61.6
2017-05-20T23:30:12.458Z,61.79
2017-05-20T23:32:22.271Z,62.93
2017-05-20T23:34:46.496Z,62.26
2017-05-20T23:37:09.587Z,62.84
2017-05-20T23:39:33.218Z,63.7
2017-05-20T23:41:56.878Z,63.76
2017-05-20T23:44:20.469Z,64.05
2017-05-20T23:46:35.871Z,64.63
2017-05-20T23:48:59.412Z,64.05
2017-05-20T23:51:23.068Z,63.89
2017-05-20T23:53:46.724Z,63.8
2017-05-20T23:56:10.320Z,64.25
2017-05-20T23:58:25.569Z,64.05
